sensor_id;sensor_type;location;lat;lon;timestamp;pressure;altitude;pressure_sealevel;temperature;humidity
75188;BME280;63762;51.334;22.108;2024-02-14T00:17:08;102171.07;;;5.34;69.28
75188;BME280;63762;51.334;22.108;2024-02-14T00:27:24;102187.35;;;5.01;69.87
75188;BME280;63762;51.334;22.108;2024-02-14T00:37:41;102199.06;;;4.97;71.37
75188;BME280;63762;51.334;22.108;2024-02-14T00:47:50;102200.23;;;5.14;71.09
75188;BME280;63762;51.334;22.108;2024-02-14T00:58:03;102191.14;;;5.20;70.87
75188;BME280;63762;51.334;22.108;2024-02-14T01:08:11;102196.49;;;5.20;70.89
75188;BME280;63762;51.334;22.108;2024-02-14T01:28:40;102205.88;;;5.05;71.65
75188;BME280;63762;51.334;22.108;2024-02-14T01:38:49;102206.91;;;5.01;71.99
75188;BME280;63762;51.334;22.108;2024-02-14T01:49:05;102210.42;;;5.02;72.26
75188;BME280;63762;51.334;22.108;2024-02-14T02:09:31;102217.93;;;4.91;73.43
75188;BME280;63762;51.334;22.108;2024-02-14T02:19:43;102222.13;;;4.98;73.56
75188;BME280;63762;51.334;22.108;2024-02-14T02:40:14;102240.11;;;5.19;73.06
75188;BME280;63762;51.334;22.108;2024-02-14T02:50:34;102250.77;;;5.19;73.26
75188;BME280;63762;51.334;22.108;2024-02-14T03:00:46;102262.24;;;5.21;73.03
75188;BME280;63762;51.334;22.108;2024-02-14T03:11:04;102266.98;;;5.13;73.35
75188;BME280;63762;51.334;22.108;2024-02-14T03:21:11;102278.45;;;5.15;73.66
75188;BME280;63762;51.334;22.108;2024-02-14T03:31:18;102287.15;;;4.94;75.26
75188;BME280;63762;51.334;22.108;2024-02-14T03:41:22;102287.87;;;4.99;74.75
75188;BME280;63762;51.334;22.108;2024-02-14T03:51:32;102300.21;;;5.03;74.94
75188;BME280;63762;51.334;22.108;2024-02-14T04:01:35;102309.70;;;5.11;74.81
75188;BME280;63762;51.334;22.108;2024-02-14T04:11:50;102319.99;;;4.96;75.36
75188;BME280;63762;51.334;22.108;2024-02-14T04:21:55;102306.44;;;5.02;75.52
75188;BME280;63762;51.334;22.108;2024-02-14T04:42:18;102311.86;;;4.99;76.27
75188;BME280;63762;51.334;22.108;2024-02-14T04:52:21;102323.34;;;5.02;76.41
75188;BME280;63762;51.334;22.108;2024-02-14T05:02:31;102351.06;;;4.97;76.75
75188;BME280;63762;51.334;22.108;2024-02-14T05:22:55;102343.63;;;5.06;76.58
75188;BME280;63762;51.334;22.108;2024-02-14T05:33:01;102358.55;;;5.13;75.82
75188;BME280;63762;51.334;22.108;2024-02-14T05:43:29;102356.93;;;5.08;76.24
75188;BME280;63762;51.334;22.108;2024-02-14T05:53:30;102372.30;;;5.00;76.65
75188;BME280;63762;51.334;22.108;2024-02-14T06:03:42;102374.97;;;5.00;76.53
75188;BME280;63762;51.334;22.108;2024-02-14T06:13:49;102385.51;;;5.04;76.65
75188;BME280;63762;51.334;22.108;2024-02-14T06:34:22;102389.40;;;5.22;76.55
75188;BME280;63762;51.334;22.108;2024-02-14T06:51:59;102405.77;;;5.10;76.08
75188;BME280;63762;51.334;22.108;2024-02-14T07:02:02;102402.36;;;5.05;76.71
75188;BME280;63762;51.334;22.108;2024-02-14T07:12:12;102409.11;;;5.16;76.36
75188;BME280;63762;51.334;22.108;2024-02-14T07:22:16;102407.74;;;5.03;76.38
75188;BME280;63762;51.334;22.108;2024-02-14T07:32:25;102414.63;;;5.12;76.25
75188;BME280;63762;51.334;22.108;2024-02-14T07:42:39;102403.75;;;5.45;74.67
75188;BME280;63762;51.334;22.108;2024-02-14T08:03:07;102412.91;;;5.92;71.19
75188;BME280;63762;51.334;22.108;2024-02-14T08:13:09;102420.27;;;6.36;67.61
75188;BME280;63762;51.334;22.108;2024-02-14T08:23:24;102416.16;;;6.75;63.05
75188;BME280;63762;51.334;22.108;2024-02-14T08:33:25;102424.20;;;6.98;61.17
75188;BME280;63762;51.334;22.108;2024-02-14T08:43:26;102424.85;;;7.05;57.58
75188;BME280;63762;51.334;22.108;2024-02-14T09:14:13;102432.16;;;7.67;52.24
75188;BME280;63762;51.334;22.108;2024-02-14T09:24:14;102424.70;;;8.17;50.51
75188;BME280;63762;51.334;22.108;2024-02-14T09:34:18;102423.34;;;8.48;48.37
75188;BME280;63762;51.334;22.108;2024-02-14T09:44:35;102421.29;;;9.12;48.06
75188;BME280;63762;51.334;22.108;2024-02-14T10:05:08;102425.45;;;8.80;47.83
75188;BME280;63762;51.334;22.108;2024-02-14T10:15:21;102427.02;;;9.04;46.52
75188;BME280;63762;51.334;22.108;2024-02-14T10:25:22;102409.53;;;9.52;46.42
75188;BME280;63762;51.334;22.108;2024-02-14T10:35:38;102413.24;;;9.85;45.94
75188;BME280;63762;51.334;22.108;2024-02-14T10:45:54;102404.34;;;10.01;45.38
75188;BME280;63762;51.334;22.108;2024-02-14T11:06:16;102403.88;;;8.43;46.59
75188;BME280;63762;51.334;22.108;2024-02-14T11:26:49;102391.54;;;9.17;44.68
75188;BME280;63762;51.334;22.108;2024-02-14T11:37:01;102374.48;;;9.72;43.62
75188;BME280;63762;51.334;22.108;2024-02-14T11:47:10;102373.42;;;10.44;42.26
75188;BME280;63762;51.334;22.108;2024-02-14T12:17:48;102365.43;;;10.42;40.65
75188;BME280;63762;51.334;22.108;2024-02-14T12:28:07;102360.30;;;11.34;40.67
75188;BME280;63762;51.334;22.108;2024-02-14T12:38:21;102367.97;;;11.10;41.46
75188;BME280;63762;51.334;22.108;2024-02-14T12:58:47;102362.63;;;10.93;42.02
75188;BME280;63762;51.334;22.108;2024-02-14T13:08:54;102354.92;;;11.03;43.77
75188;BME280;63762;51.334;22.108;2024-02-14T13:19:02;102345.53;;;11.10;42.88
75188;BME280;63762;51.334;22.108;2024-02-14T13:29:15;102351.97;;;11.07;43.82
75188;BME280;63762;51.334;22.108;2024-02-14T13:39:35;102349.70;;;10.84;43.12
75188;BME280;63762;51.334;22.108;2024-02-14T13:49:40;102352.33;;;10.69;43.78
75188;BME280;63762;51.334;22.108;2024-02-14T13:59:53;102360.80;;;10.78;44.14
75188;BME280;63762;51.334;22.108;2024-02-14T14:09:57;102376.47;;;10.38;44.26
75188;BME280;63762;51.334;22.108;2024-02-14T14:19:59;102375.79;;;10.50;44.04
75188;BME280;63762;51.334;22.108;2024-02-14T14:30:14;102360.64;;;10.32;44.02
75188;BME280;63762;51.334;22.108;2024-02-14T14:40:27;102373.76;;;10.21;44.51
75188;BME280;63762;51.334;22.108;2024-02-14T14:50:37;102365.66;;;10.04;45.49
75188;BME280;63762;51.334;22.108;2024-02-14T15:00:47;102366.44;;;9.89;45.11
75188;BME280;63762;51.334;22.108;2024-02-14T15:10:54;102377.19;;;9.89;46.13
75188;BME280;63762;51.334;22.108;2024-02-14T15:21:10;102369.26;;;9.69;45.83
75188;BME280;63762;51.334;22.108;2024-02-14T15:31:24;102376.55;;;9.48;46.63
75188;BME280;63762;51.334;22.108;2024-02-14T15:41:37;102381.96;;;9.30;46.64
75188;BME280;63762;51.334;22.108;2024-02-14T15:51:44;102394.94;;;9.01;49.01
75188;BME280;63762;51.334;22.108;2024-02-14T16:01:49;102398.09;;;8.72;49.70
75188;BME280;63762;51.334;22.108;2024-02-14T16:11:54;102396.85;;;8.41;50.36
75188;BME280;63762;51.334;22.108;2024-02-14T16:21:58;102413.10;;;8.16;50.75
75188;BME280;63762;51.334;22.108;2024-02-14T16:32:14;102405.82;;;7.98;52.01
75188;BME280;63762;51.334;22.108;2024-02-14T16:42:19;102417.58;;;7.74;52.94
75188;BME280;63762;51.334;22.108;2024-02-14T17:02:57;102424.91;;;7.26;54.29
75188;BME280;63762;51.334;22.108;2024-02-14T17:13:09;102426.86;;;7.21;54.61
75188;BME280;63762;51.334;22.108;2024-02-14T17:23:18;102431.71;;;7.12;54.79
75188;BME280;63762;51.334;22.108;2024-02-14T17:33:24;102434.90;;;6.98;55.52
75188;BME280;63762;51.334;22.108;2024-02-14T17:43:31;102452.06;;;6.93;55.99
75188;BME280;63762;51.334;22.108;2024-02-14T17:53:38;102438.84;;;6.88;55.90
75188;BME280;63762;51.334;22.108;2024-02-14T18:03:43;102423.79;;;6.85;56.39
75188;BME280;63762;51.334;22.108;2024-02-14T18:13:46;102422.45;;;6.74;56.43
75188;BME280;63762;51.334;22.108;2024-02-14T18:24:12;102426.22;;;6.68;56.71
75188;BME280;63762;51.334;22.108;2024-02-14T18:34:18;102437.48;;;6.53;57.06
75188;BME280;63762;51.334;22.108;2024-02-14T18:44:24;102433.90;;;6.53;57.13
75188;BME280;63762;51.334;22.108;2024-02-14T18:54:37;102430.86;;;6.39;57.82
75188;BME280;63762;51.334;22.108;2024-02-14T19:04:45;102432.99;;;6.29;57.86
75188;BME280;63762;51.334;22.108;2024-02-14T19:14:46;102434.16;;;6.21;58.20
75188;BME280;63762;51.334;22.108;2024-02-14T19:24:59;102451.19;;;6.18;58.33
75188;BME280;63762;51.334;22.108;2024-02-14T19:35:13;102444.96;;;6.18;58.61
75188;BME280;63762;51.334;22.108;2024-02-14T19:45:17;102454.90;;;6.14;58.65
75188;BME280;63762;51.334;22.108;2024-02-14T19:55:24;102461.72;;;5.97;58.77
75188;BME280;63762;51.334;22.108;2024-02-14T20:05:52;102455.59;;;5.93;59.23
75188;BME280;63762;51.334;22.108;2024-02-14T20:15:55;102456.66;;;5.88;59.81
75188;BME280;63762;51.334;22.108;2024-02-14T20:25:58;102469.38;;;5.80;60.04
75188;BME280;63762;51.334;22.108;2024-02-14T20:35:59;102467.65;;;5.77;60.39
75188;BME280;63762;51.334;22.108;2024-02-14T20:46:01;102463.16;;;5.79;59.81
75188;BME280;63762;51.334;22.108;2024-02-14T20:56:02;102459.08;;;5.68;60.32
75188;BME280;63762;51.334;22.108;2024-02-14T21:06:03;102449.87;;;5.50;60.51
75188;BME280;63762;51.334;22.108;2024-02-14T21:16:24;102451.78;;;5.45;60.86
75188;BME280;63762;51.334;22.108;2024-02-14T21:26:29;102452.58;;;5.49;61.12
75188;BME280;63762;51.334;22.108;2024-02-14T21:37:02;102429.77;;;5.39;61.32
75188;BME280;63762;51.334;22.108;2024-02-14T21:47:08;102425.41;;;5.36;61.46
75188;BME280;63762;51.334;22.108;2024-02-14T21:57:15;102427.43;;;5.28;61.71
75188;BME280;63762;51.334;22.108;2024-02-14T22:07:33;102432.80;;;5.27;61.74
75188;BME280;63762;51.334;22.108;2024-02-14T22:17:32;102437.24;;;5.28;61.99
75188;BME280;63762;51.334;22.108;2024-02-14T22:27:36;102431.77;;;5.31;61.92
75188;BME280;63762;51.334;22.108;2024-02-14T22:37:43;102433.92;;;5.20;62.46
75188;BME280;63762;51.334;22.108;2024-02-14T22:47:46;102434.05;;;5.15;62.50
75188;BME280;63762;51.334;22.108;2024-02-14T22:57:51;102429.75;;;5.11;62.81
75188;BME280;63762;51.334;22.108;2024-02-14T23:07:56;102437.04;;;5.05;63.00
75188;BME280;63762;51.334;22.108;2024-02-14T23:18:09;102429.42;;;4.93;63.25
75188;BME280;63762;51.334;22.108;2024-02-14T23:28:13;102427.70;;;4.90;62.99
75188;BME280;63762;51.334;22.108;2024-02-14T23:38:17;102432.13;;;4.60;63.67
75188;BME280;63762;51.334;22.108;2024-02-14T23:48:29;102452.91;;;4.46;64.12
75188;BME280;63762;51.334;22.108;2024-02-14T23:58:35;102440.58;;;4.44;64.05
